Time;durP1;ratioP1;P1;durP2;ratioP2;P2;SDS_P1;SDS_P2;PMS_P1;PMS_P2;Temp;Humidity;BMP_temperature;BMP_pressure;BME280_temperature;BME280_humidity;BME280_pressure;Samples;Min_cycle;Max_cycle;Signal;HPM_P1;HPM_P2
2021/10/26 00:00:57;;;;;;;788.80;737.77;;;8.20;1.00;;;;;;4844736;29;20205;-91
2021/10/26 00:03:23;;;;;;;778.13;727.57;;;8.20;1.00;;;;;;4827482;29;20217;-91
2021/10/26 00:05:48;;;;;;;757.57;707.97;;;8.30;1.00;;;;;;4823576;29;20190;-91
2021/10/26 00:08:14;;;;;;;752.50;704.37;;;;;;;;;;4845006;29;20198;-91
2021/10/26 00:10:40;;;;;;;746.07;698.53;;;;;;;;;;4815323;29;20550;-91
2021/10/26 00:13:06;;;;;;;783.03;733.37;;;8.30;1.00;;;;;;4818621;29;20276;-91
2021/10/26 00:15:32;;;;;;;756.43;709.67;;;;;;;;;;4831157;29;20225;-92
2021/10/26 00:17:59;;;;;;;744.80;697.67;;;;;;;;;;4832138;29;21571;-91
2021/10/26 00:20:30;;;;;;;789.70;739.73;;;;;;;;;;4834200;29;20234;-91
2021/10/26 00:22:55;;;;;;;827.40;769.80;;;8.40;1.00;;;;;;4823042;29;20313;-91
2021/10/26 00:25:21;;;;;;;828.37;771.20;;;8.50;1.00;;;;;;4793530;29;20249;-91
2021/10/26 00:27:47;;;;;;;881.73;821.03;;;;;;;;;;4792283;29;20205;-91
2021/10/26 00:30:14;;;;;;;915.67;850.10;;;;;;;;;;4778045;29;20204;-91
2021/10/26 00:32:40;;;;;;;924.83;858.77;;;;;;;;;;4792995;29;20269;-91
2021/10/26 00:35:08;;;;;;;912.77;845.80;;;8.60;1.00;;;;;;4794545;29;20234;-91
2021/10/26 00:37:36;;;;;;;959.50;888.13;;;8.60;1.00;;;;;;4791245;29;20796;-91
2021/10/26 00:40:06;;;;;;;988.07;910.57;;;8.60;1.00;;;;;;4807015;29;20244;-92
2021/10/26 00:42:32;;;;;;;960.50;887.67;;;8.60;1.00;;;;;;4820887;29;20199;-91
2021/10/26 00:44:57;;;;;;;953.03;884.73;;;9.40;1.00;;;;;;4806605;29;20240;-91
2021/10/26 00:47:24;;;;;;;938.93;871.87;;;;;;;;;;4827703;29;20383;-91
2021/10/26 00:49:50;;;;;;;944.50;877.53;;;8.60;1.00;;;;;;4808040;29;20273;-92
2021/10/26 00:52:16;;;;;;;907.53;844.43;;;8.60;1.00;;;;;;4817104;29;20203;-92
2021/10/26 00:54:43;;;;;;;921.77;857.77;;;;;;;;;;4826570;29;20204;-91
2021/10/26 00:57:09;;;;;;;946.70;879.33;;;;;;;;;;4853480;29;20225;-91
2021/10/26 00:59:35;;;;;;;940.67;873.97;;;;;;;;;;4849104;29;20194;-91
2021/10/26 01:02:01;;;;;;;957.47;890.17;;;;;;;;;;4851124;29;20206;-91
2021/10/26 01:04:28;;;;;;;974.23;906.20;;;;;;;;;;4829368;29;20210;-91
2021/10/26 01:06:56;;;;;;;987.53;914.97;;;8.70;1.00;;;;;;4831048;29;20210;-91
2021/10/26 01:09:22;;;;;;;1009.17;931.73;;;;;;;;;;4827432;29;20196;-91
2021/10/26 01:11:48;;;;;;;984.57;913.57;;;8.70;1.00;;;;;;4808723;29;20215;-91
2021/10/26 01:14:15;;;;;;;976.47;903.77;;;9.20;1.00;;;;;;4811182;29;21924;-91
2021/10/26 01:16:41;;;;;;;956.80;888.37;;;;;;;;;;4796012;29;20282;-91
2021/10/26 01:19:08;;;;;;;1024.70;944.50;;;;;;;;;;4795450;29;20243;-91
2021/10/26 01:21:34;;;;;;;967.57;896.67;;;;;;;;;;4789900;29;20238;-91
2021/10/26 01:24:00;;;;;;;1030.87;941.77;;;;;;;;;;4807758;29;20213;-91
2021/10/26 01:26:26;;;;;;;968.90;898.23;;;;;;;;;;4809387;29;20183;-91
2021/10/26 01:28:53;;;;;;;990.73;917.27;;;;;;;;;;4806967;29;20209;-91
2021/10/26 01:31:19;;;;;;;1012.20;928.93;;;;;;;;;;4805338;29;20215;-91
2021/10/26 01:33:45;;;;;;;1037.73;950.73;;;;;;;;;;4793508;29;20309;-91
2021/10/26 01:36:14;;;;;;;1007.77;926.40;;;8.80;1.00;;;;;;4791213;29;20228;-91
2021/10/26 01:38:40;;;;;;;997.33;910.57;;;;;;;;;;4806137;29;20696;-91
2021/10/26 01:41:07;;;;;;;981.57;904.40;;;8.90;1.00;;;;;;4794450;29;20802;-91
2021/10/26 01:43:37;;;;;;;972.87;893.27;;;;;;;;;;4810251;29;20199;-91
2021/10/26 01:46:03;;;;;;;940.57;868.87;;;;;;;;;;4820502;29;20682;-91
2021/10/26 01:48:29;;;;;;;955.67;880.67;;;8.80;1.00;;;;;;4811749;29;20298;-92
2021/10/26 01:50:57;;;;;;;860.80;800.80;;;;;;;;;;4818650;29;20222;-91
2021/10/26 01:53:23;;;;;;;850.70;793.53;;;;;;;;;;4847114;29;20217;-92
2021/10/26 01:55:51;;;;;;;857.80;801.70;;;;;;;;;;4860933;29;20194;-91
2021/10/26 01:58:17;;;;;;;862.73;803.67;;;;;;;;;;4847107;29;20237;-91
2021/10/26 02:00:43;;;;;;;925.60;850.33;;;;;;;;;;4851964;29;20213;-92
2021/10/26 02:03:11;;;;;;;814.60;761.27;;;8.70;1.00;;;;;;4844999;29;20202;-91
2021/10/26 02:05:38;;;;;;;823.27;769.40;;;;;;;;;;4840125;29;20230;-91
2021/10/26 02:08:05;;;;;;;962.27;882.87;;;8.70;1.00;;;;;;4844008;29;20198;-91
2021/10/26 02:10:31;;;;;;;807.17;753.50;;;;;;;;;;4829576;29;20664;-92
2021/10/26 02:12:58;;;;;;;876.97;812.47;;;;;;;;;;4849383;29;20675;-91
2021/10/26 02:15:24;;;;;;;780.90;733.87;;;8.70;1.00;;;;;;4826796;29;20297;-91
2021/10/26 02:17:50;;;;;;;789.67;744.73;;;;;;;;;;4826852;29;20244;-91
2021/10/26 02:20:15;;;;;;;839.00;783.77;;;8.60;1.00;;;;;;4819941;29;20201;-91
2021/10/26 02:22:48;;;;;;;810.03;757.13;;;8.50;1.00;;;;;;4846057;29;20197;-91
2021/10/26 02:25:15;;;;;;;1005.37;914.77;;;8.60;1.00;;;;;;4826412;29;20206;-91
2021/10/26 02:27:41;;;;;;;787.43;734.13;;;;;;;;;;4841407;29;20726;-91
2021/10/26 02:30:07;;;;;;;831.90;768.40;;;8.50;1.00;;;;;;4833396;29;20201;-91
2021/10/26 02:32:34;;;;;;;735.20;689.20;;;;;;;;;;4844419;29;20194;-91
2021/10/26 02:34:59;;;;;;;788.13;732.83;;;8.40;1.00;;;;;;4849403;29;20194;-91
2021/10/26 02:37:25;;;;;;;762.37;710.73;;;8.60;1.00;;;;;;4857788;29;20284;-91
2021/10/26 02:39:51;;;;;;;764.00;711.30;;;;;;;;;;4861178;29;20197;-91
2021/10/26 02:42:18;;;;;;;799.53;742.67;;;8.50;1.00;;;;;;4842260;29;20212;-91
2021/10/26 02:44:44;;;;;;;751.43;702.37;;;;;;;;;;4823425;29;22012;-91
2021/10/26 02:47:12;;;;;;;716.67;668.47;;;8.60;1.00;;;;;;4776321;30;20242;-91
2021/10/26 02:49:37;;;;;;;690.93;647.30;;;8.60;1.00;;;;;;4789281;29;20200;-92
2021/10/26 02:52:04;;;;;;;656.83;611.87;;;8.60;1.00;;;;;;4797815;29;20709;-91
2021/10/26 02:54:30;;;;;;;645.43;600.37;;;;;;;;;;4788123;29;20720;-91
2021/10/26 02:56:59;;;;;;;596.60;554.73;;;8.60;1.00;;;;;;4792735;29;20692;-91
2021/10/26 02:59:25;;;;;;;603.40;557.53;;;;;;;;;;4790547;29;20217;-91
2021/10/26 03:01:51;;;;;;;580.37;533.97;;;8.50;1.00;;;;;;4788184;29;20794;-91
2021/10/26 03:04:17;;;;;;;506.70;467.10;;;8.50;1.00;;;;;;4794784;29;20318;-91
2021/10/26 03:06:43;;;;;;;504.07;466.90;;;;;;;;;;4784361;29;20216;-91
2021/10/26 03:09:10;;;;;;;641.03;592.17;;;8.50;1.00;;;;;;4793317;29;20235;-91
2021/10/26 03:11:37;;;;;;;645.40;592.83;;;8.40;1.00;;;;;;4789598;29;20193;-91
2021/10/26 03:14:03;;;;;;;613.17;566.43;;;;;;;;;;4778584;30;20591;-91
2021/10/26 03:16:30;;;;;;;592.23;547.77;;;;;;;;;;4793565;29;20266;-91
2021/10/26 03:18:56;;;;;;;621.23;576.67;;;8.40;1.00;;;;;;4792819;29;20242;-91
2021/10/26 03:21:22;;;;;;;646.50;597.03;;;;;;;;;;4774199;29;20207;-91
2021/10/26 03:23:49;;;;;;;670.33;618.30;;;;;;;;;;4776651;30;20202;-92
2021/10/26 03:26:14;;;;;;;716.80;668.77;;;8.50;1.00;;;;;;4777241;30;20216;-91
2021/10/26 03:28:40;;;;;;;794.47;738.30;;;;;;;;;;4789445;29;20217;-91
2021/10/26 03:31:06;;;;;;;848.50;783.97;;;8.40;1.00;;;;;;4817830;29;20225;-91
2021/10/26 03:33:32;;;;;;;917.03;846.97;;;8.40;1.00;;;;;;4823965;29;20576;-91
2021/10/26 03:36:03;;;;;;;969.13;892.87;;;8.30;1.00;;;;;;4846689;29;20541;-91
2021/10/26 03:38:29;;;;;;;978.77;904.40;;;8.30;1.00;;;;;;4846527;29;20573;-91
2021/10/26 03:40:57;;;;;;;647.37;596.00;;;8.20;1.00;;;;;;4843047;29;20668;-92
2021/10/26 03:43:22;;;;;;;706.63;654.90;;;8.20;1.00;;;;;;4849375;29;20255;-91
2021/10/26 03:45:49;;;;;;;827.73;755.17;;;8.20;1.00;;;;;;4863223;29;20207;-91
2021/10/26 03:48:16;;;;;;;815.87;754.10;;;8.30;1.00;;;;;;4844593;29;20640;-91
2021/10/26 03:50:43;;;;;;;926.67;850.33;;;8.30;1.00;;;;;;4852612;29;20199;-91
2021/10/26 03:53:08;;;;;;;919.73;843.23;;;9.10;1.00;;;;;;4848945;29;20217;-92
2021/10/26 03:55:35;;;;;;;962.33;879.60;;;;;;;;;;4845344;29;20213;-91
2021/10/26 03:58:02;;;;;;;981.17;897.20;;;8.30;1.00;;;;;;4830612;29;20302;-91
2021/10/26 04:00:28;;;;;;;959.33;883.43;;;;;;;;;;4834867;29;20203;-92
2021/10/26 04:02:54;;;;;;;949.37;874.67;;;8.40;1.00;;;;;;4816639;29;20309;-92
2021/10/26 04:05:33;;;;;;;916.10;846.83;;;8.30;1.00;;;;;;4818274;29;20250;-91
2021/10/26 04:08:06;;;;;;;990.10;908.20;;;8.40;1.00;;;;;;4808547;29;20202;-91
2021/10/26 04:10:51;;;;;;;970.13;895.53;;;9.00;1.00;;;;;;4823349;29;20261;-91
2021/10/26 04:13:16;;;;;;;978.13;903.23;;;8.40;1.00;;;;;;4814520;29;20215;-91
2021/10/26 04:15:43;;;;;;;977.90;901.17;;;;;;;;;;4830643;29;20285;-91
2021/10/26 04:18:09;;;;;;;1053.53;951.90;;;8.40;1.00;;;;;;4828349;29;20335;-91
2021/10/26 04:20:36;;;;;;;974.47;898.73;;;8.40;1.00;;;;;;4803886;29;20280;-91
2021/10/26 04:23:01;;;;;;;982.50;904.47;;;8.40;1.00;;;;;;4790924;29;20246;-91
2021/10/26 04:25:27;;;;;;;1058.17;964.27;;;8.40;1.00;;;;;;4791441;30;20212;-91
2021/10/26 04:27:53;;;;;;;1118.27;999.90;;;8.40;1.00;;;;;;4791935;29;20200;-90
2021/10/26 04:30:21;;;;;;;1053.43;962.57;;;;;;;;;;4793224;29;20220;-91
2021/10/26 04:32:50;;;;;;;1086.60;988.67;;;8.40;1.00;;;;;;4793547;30;20626;-91
2021/10/26 04:35:15;;;;;;;1127.17;999.90;;;8.40;1.00;;;;;;4774515;30;20216;-91
2021/10/26 04:37:41;;;;;;;1092.73;986.73;;;8.50;1.00;;;;;;4769134;30;20232;-91
2021/10/26 04:40:08;;;;;;;1211.37;999.90;;;10.70;1.00;;;;;;4780802;30;20284;-91
2021/10/26 04:42:34;;;;;;;1154.87;999.90;;;8.50;1.00;;;;;;4762494;29;20220;-91
2021/10/26 04:44:59;;;;;;;1078.33;970.67;;;10.40;1.00;;;;;;4777645;29;20203;-91
2021/10/26 04:47:26;;;;;;;1182.87;999.90;;;8.50;1.00;;;;;;4778033;30;20198;-91
2021/10/26 04:49:55;;;;;;;1309.30;999.90;;;8.50;1.00;;;;;;4779412;30;20212;-91
2021/10/26 04:52:21;;;;;;;1460.60;999.90;;;8.50;1.00;;;;;;4795426;29;20203;-90
2021/10/26 04:54:53;;;;;;;1364.90;999.90;;;;;;;;;;4812224;29;20372;-93
2021/10/26 04:57:23;;;;;;;1541.07;999.90;;;;;;;;;;4759634;30;20216;-91
2021/10/26 04:59:49;;;;;;;1494.90;999.90;;;;;;;;;;4782810;29;20226;-91
2021/10/26 05:02:15;;;;;;;1420.30;999.90;;;;;;;;;;4813416;29;20199;-91
2021/10/26 05:04:43;;;;;;;1572.27;999.90;;;8.80;1.00;;;;;;4797295;29;20251;-91
2021/10/26 05:07:18;;;;;;;1365.83;970.93;;;;;;;;;;4833310;29;20594;-92
2021/10/26 05:09:57;;;;;;;1406.37;999.90;;;;;;;;;;4865326;29;20182;-93
2021/10/26 05:12:37;;;;;;;1769.93;999.90;;;;;;;;;;4839967;29;20217;-93
2021/10/26 05:15:04;;;;;;;1081.00;969.70;;;8.90;1.00;;;;;;4838031;29;20205;-93
2021/10/26 05:17:30;;;;;;;985.30;886.23;;;;;;;;;;4851662;29;20252;-93
2021/10/26 05:19:57;;;;;;;1096.23;992.10;;;;;;;;;;4866285;29;20204;-93
2021/10/26 05:22:26;;;;;;;1106.27;994.07;;;9.00;1.00;;;;;;4869649;29;20209;-93
2021/10/26 05:24:52;;;;;;;1257.77;999.90;;;9.10;1.00;;;;;;4807361;29;20277;-92
2021/10/26 05:27:37;;;;;;;1196.30;999.90;;;9.10;1.00;;;;;;4815677;29;20294;-93
2021/10/26 05:30:04;;;;;;;1263.87;999.90;;;9.20;1.00;;;;;;4828576;29;20630;-92
2021/10/26 05:32:30;;;;;;;1348.33;999.90;;;;;;;;;;4828595;29;20195;-92
2021/10/26 05:34:55;;;;;;;1365.90;999.90;;;9.30;1.00;;;;;;4835851;29;20270;-91
2021/10/26 05:37:21;;;;;;;1315.53;999.90;;;;;;;;;;4822266;29;20691;-91
2021/10/26 05:39:47;;;;;;;1268.83;999.90;;;9.30;1.00;;;;;;4833385;29;20649;-91
2021/10/26 05:42:18;;;;;;;1390.47;999.90;;;9.40;1.00;;;;;;4836622;29;20199;-93
2021/10/26 05:44:44;;;;;;;1402.07;999.90;;;9.40;1.00;;;;;;4827899;29;20209;-92
2021/10/26 05:47:11;;;;;;;1357.83;999.90;;;9.40;1.00;;;;;;4831068;29;20198;-92
2021/10/26 05:49:37;;;;;;;1305.17;999.90;;;10.90;1.00;;;;;;4826923;29;20203;-91
2021/10/26 05:52:03;;;;;;;1081.30;926.60;;;9.50;1.00;;;;;;4830220;29;20259;-91
2021/10/26 05:54:29;;;;;;;1078.90;943.93;;;;;;;;;;4813548;29;21199;-93
2021/10/26 05:56:56;;;;;;;1094.23;975.60;;;;;;;;;;4860880;29;20205;-92
2021/10/26 05:59:22;;;;;;;1000.63;904.10;;;;;;;;;;4857981;29;20775;-92
2021/10/26 06:01:49;;;;;;;1007.10;912.10;;;;;;;;;;4866555;29;20190;-92
2021/10/26 06:04:18;;;;;;;973.17;888.60;;;9.40;1.00;;;;;;4827935;29;20230;-92
2021/10/26 06:06:44;;;;;;;925.70;844.87;;;;;;;;;;4815085;29;20211;-92
2021/10/26 06:09:15;;;;;;;1013.07;917.47;;;9.40;1.00;;;;;;4812689;29;20214;-92
2021/10/26 06:11:50;;;;;;;954.97;867.77;;;9.50;1.00;;;;;;4787351;29;20237;-92
2021/10/26 06:14:30;;;;;;;826.13;760.77;;;9.50;1.00;;;;;;4785321;29;20195;-92
2021/10/26 06:17:02;;;;;;;739.93;686.73;;;9.50;1.00;;;;;;4778469;30;20216;-92
2021/10/26 06:20:01;;;;;;;715.10;659.73;;;9.50;1.00;;;;;;4772542;29;20316;-92
2021/10/26 06:22:31;;;;;;;561.60;524.27;;;9.50;1.00;;;;;;4787367;29;20240;-91
2021/10/26 06:24:59;;;;;;;774.50;719.37;;;9.40;1.00;;;;;;4762805;30;20195;-91
2021/10/26 06:27:25;;;;;;;667.77;625.87;;;;;;;;;;4781251;29;20204;-90
2021/10/26 06:29:51;;;;;;;651.93;610.93;;;;;;;;;;4780516;29;20207;-91
2021/10/26 06:32:17;;;;;;;674.10;630.20;;;;;;;;;;4797033;29;20216;-91
2021/10/26 06:34:43;;;;;;;717.93;670.07;;;;;;;;;;4798278;29;20200;-91
2021/10/26 06:37:09;;;;;;;706.53;660.37;;;9.50;1.00;;;;;;4776899;30;20205;-90
2021/10/26 06:39:35;;;;;;;803.97;737.40;;;;;;;;;;4772133;30;20219;-90
2021/10/26 06:42:00;;;;;;;756.00;705.03;;;9.60;1.00;;;;;;4786696;29;20209;-91
2021/10/26 06:44:27;;;;;;;787.93;728.97;;;;;;;;;;4813371;29;20203;-90
2021/10/26 06:46:52;;;;;;;821.53;764.10;;;9.60;1.00;;;;;;4808894;29;20274;-91
2021/10/26 06:49:18;;;;;;;833.40;766.80;;;9.70;1.00;;;;;;4783808;29;20740;-90
2021/10/26 06:51:44;;;;;;;848.43;778.30;;;;;;;;;;4808357;29;20687;-90
2021/10/26 06:54:11;;;;;;;864.27;797.97;;;;;;;;;;4830594;29;20206;-91
2021/10/26 06:56:37;;;;;;;779.30;723.10;;;;;;;;;;4827895;29;20227;-90
2021/10/26 06:59:03;;;;;;;736.13;686.70;;;;;;;;;;4815982;29;20253;-90
2021/10/26 07:01:29;;;;;;;702.43;658.37;;;10.00;1.00;;;;;;4831565;29;20213;-90
2021/10/26 07:03:57;;;;;;;685.13;643.03;;;10.10;1.00;;;;;;4815863;29;20230;-90
2021/10/26 07:06:23;;;;;;;586.03;551.97;;;;;;;;;;4830194;29;20209;-91
2021/10/26 07:08:50;;;;;;;687.43;636.10;;;10.20;1.00;;;;;;4848965;29;20244;-90
2021/10/26 07:11:18;;;;;;;498.73;472.10;;;;;;;;;;4845745;29;20214;-91
2021/10/26 07:13:44;;;;;;;445.57;422.17;;;10.20;1.00;;;;;;4851964;29;20214;-91
2021/10/26 07:16:10;;;;;;;303.37;289.20;;;;;;;;;;4835907;29;20208;-91
2021/10/26 07:18:37;;;;;;;279.37;267.63;;;10.40;1.00;;;;;;4851020;29;20223;-91
2021/10/26 07:21:07;;;;;;;264.13;252.77;;;;;;;;;;4818096;29;20279;-91
2021/10/26 07:23:34;;;;;;;330.97;314.80;;;;;;;;;;4830433;29;20279;-91
2021/10/26 07:26:00;;;;;;;257.60;246.47;;;10.50;1.00;;;;;;4833358;29;20251;-91
2021/10/26 07:28:26;;;;;;;274.53;261.70;;;;;;;;;;4849760;29;20214;-91
2021/10/26 07:30:52;;;;;;;321.17;305.97;;;10.60;1.00;;;;;;4840767;29;20190;-92
2021/10/26 07:33:25;;;;;;;331.13;316.23;;;10.80;1.00;;;;;;4857732;29;20204;-91
2021/10/26 07:35:53;;;;;;;359.33;342.73;;;10.80;1.00;;;;;;4833284;29;20200;-91
2021/10/26 07:38:35;;;;;;;388.53;370.07;;;;;;;;;;4847958;29;20336;-91
2021/10/26 07:41:03;;;;;;;336.03;318.27;;;10.80;1.00;;;;;;4846950;29;20261;-91
2021/10/26 07:43:32;;;;;;;475.73;428.83;;;;;;;;;;4831915;29;20209;-92
2021/10/26 07:45:58;;;;;;;396.90;374.17;;;10.90;1.00;;;;;;4835044;29;20209;-91
2021/10/26 07:48:24;;;;;;;446.33;420.77;;;;;;;;;;4841595;29;20203;-91
2021/10/26 07:50:53;;;;;;;523.60;495.23;;;10.90;1.00;;;;;;4831372;29;20281;-91
2021/10/26 07:53:19;;;;;;;559.77;528.80;;;10.90;1.00;;;;;;4812116;29;20211;-91
2021/10/26 07:55:51;;;;;;;559.27;524.33;;;10.90;1.00;;;;;;4814313;29;20244;-91
2021/10/26 07:58:18;;;;;;;562.60;528.63;;;10.90;1.00;;;;;;4813736;29;20300;-90
2021/10/26 08:00:43;;;;;;;663.10;619.57;;;11.00;1.00;;;;;;4799932;29;20209;-91
2021/10/26 08:03:09;;;;;;;474.50;446.70;;;;;;;;;;4814234;29;20217;-91
2021/10/26 08:05:35;;;;;;;875.87;694.47;;;;;;;;;;4828610;29;20195;-91
2021/10/26 08:08:01;;;;;;;628.43;574.87;;;11.00;1.00;;;;;;4834218;29;20232;-91
2021/10/26 08:10:27;;;;;;;495.10;456.47;;;11.00;1.00;;;;;;4823465;29;20208;-92
2021/10/26 08:12:54;;;;;;;470.03;436.70;;;13.00;1.00;;;;;;4844605;29;20210;-90
2021/10/26 08:15:22;;;;;;;595.93;558.07;;;11.10;1.00;;;;;;4838140;29;20201;-91
2021/10/26 08:17:49;;;;;;;541.40;509.93;;;11.10;1.00;;;;;;4823650;29;20223;-91
2021/10/26 08:20:16;;;;;;;903.87;821.33;;;13.50;1.00;;;;;;4832058;29;20228;-91
2021/10/26 08:22:44;;;;;;;659.07;599.87;;;;;;;;;;4833992;29;20228;-91
2021/10/26 08:25:19;;;;;;;570.97;535.37;;;;;;;;;;4853603;29;20198;-91
2021/10/26 08:27:45;;;;;;;379.80;351.80;;;;;;;;;;4851908;29;20207;-91
2021/10/26 08:30:16;;;;;;;658.23;599.83;;;11.30;1.00;;;;;;4867808;29;20204;-91
2021/10/26 08:37:45;;;;;;;481.67;455.63;;;11.50;1.00;;;;;;4851339;29;20283;-91
2021/10/26 08:40:12;;;;;;;438.37;409.47;;;;;;;;;;4851404;29;20191;-91
2021/10/26 08:42:39;;;;;;;464.70;436.70;;;11.50;1.00;;;;;;4866429;29;20213;-91
2021/10/26 08:45:06;;;;;;;418.30;384.57;;;11.50;1.00;;;;;;4849613;29;20470;-91
2021/10/26 08:47:35;;;;;;;572.37;530.10;;;11.50;1.00;;;;;;4834690;29;20378;-91
2021/10/26 08:50:01;;;;;;;300.77;286.67;;;11.50;1.00;;;;;;4856238;29;20647;-91
2021/10/26 08:52:27;;;;;;;268.37;255.57;;;11.60;1.00;;;;;;4875530;29;20196;-91
2021/10/26 08:54:54;;;;;;;416.93;390.03;;;11.70;1.00;;;;;;4857229;29;20262;-91
2021/10/26 08:57:21;;;;;;;384.53;362.17;;;;;;;;;;4859953;29;20216;-91
2021/10/26 08:59:47;;;;;;;356.57;340.07;;;;;;;;;;4856105;29;20232;-91
2021/10/26 09:02:13;;;;;;;322.63;305.50;;;11.90;1.00;;;;;;4854004;29;20206;-91
2021/10/26 09:04:39;;;;;;;359.73;340.77;;;12.00;1.00;;;;;;4860094;29;20258;-91
2021/10/26 09:07:15;;;;;;;308.00;284.83;;;12.10;1.00;;;;;;4847190;29;20206;-91
2021/10/26 09:09:41;;;;;;;302.87;288.77;;;12.10;1.00;;;;;;4845635;29;20223;-91
2021/10/26 09:17:54;;;;;;;586.50;534.57;;;12.00;1.00;;;;;;4859123;29;20243;-91
2021/10/26 09:20:22;;;;;;;490.40;452.07;;;12.00;1.00;;;;;;4828821;29;20216;-91
2021/10/26 09:22:56;;;;;;;450.93;428.77;;;12.00;1.00;;;;;;4828408;29;20220;-91
2021/10/26 09:25:37;;;;;;;545.83;516.33;;;12.20;1.00;;;;;;4823722;29;20654;-91
2021/10/26 09:28:22;;;;;;;415.73;375.40;;;12.40;1.00;;;;;;4806221;29;20219;-91
2021/10/26 09:31:07;;;;;;;267.93;256.33;;;12.80;1.00;;;;;;4803815;29;20202;-91
2021/10/26 09:33:36;;;;;;;148.77;142.93;;;12.90;1.00;;;;;;4797092;29;20211;-91
2021/10/26 09:36:28;;;;;;;80.17;75.23;;;13.10;1.00;;;;;;4813281;29;20234;-91
2021/10/26 09:39:13;;;;;;;19.17;18.27;;;13.30;1.00;;;;;;4813005;29;20223;-91
2021/10/26 09:41:51;;;;;;;30.50;29.20;;;13.40;1.00;;;;;;4812160;29;20194;-91
2021/10/26 09:44:19;;;;;;;9.00;8.60;;;13.60;1.00;;;;;;4811917;29;20212;-91
2021/10/26 09:46:52;;;;;;;93.23;87.53;;;13.70;1.00;;;;;;4795002;29;20690;-91
2021/10/26 09:49:26;;;;;;;144.07;108.63;;;13.60;1.00;;;;;;4813547;29;20206;-91
2021/10/26 09:52:08;;;;;;;12.63;11.90;;;13.60;1.00;;;;;;4814164;29;20267;-91
2021/10/26 09:54:36;;;;;;;44.07;41.73;;;13.50;1.00;;;;;;4801341;29;20263;-92
2021/10/26 09:57:11;;;;;;;6.07;5.67;;;13.50;1.00;;;;;;4811256;29;20210;-91
2021/10/26 09:59:57;;;;;;;9.57;9.07;;;13.50;1.00;;;;;;4811871;29;20195;-91
2021/10/26 10:02:24;;;;;;;6.03;4.93;;;13.40;1.00;;;;;;4814426;29;20667;-91
2021/10/26 10:04:56;;;;;;;13.40;12.60;;;13.30;1.00;;;;;;4806791;29;20772;-92
2021/10/26 10:07:38;;;;;;;40.60;37.77;;;13.30;1.00;;;;;;4795942;29;20681;-91
2021/10/26 10:10:09;;;;;;;5.83;5.43;;;13.30;1.00;;;;;;4819091;29;20201;-91
2021/10/26 10:12:37;;;;;;;5.67;5.23;;;13.70;1.00;;;;;;4859889;29;20186;-92
2021/10/26 10:15:06;;;;;;;7.00;6.50;;;13.70;1.00;;;;;;4862182;29;20198;-91
2021/10/26 10:17:36;;;;;;;5.43;5.13;;;;;;;;;;4860510;29;20577;-91
2021/10/26 10:20:05;;;;;;;4.90;4.10;;;14.30;1.00;;;;;;4863727;29;20213;-91
2021/10/26 10:22:32;;;;;;;4.17;3.87;;;14.20;1.00;;;;;;4861369;29;20217;-91
2021/10/26 10:25:01;;;;;;;5.83;5.43;;;14.30;1.00;;;;;;4854668;29;20202;-91
2021/10/26 10:27:32;;;;;;;7.93;7.47;;;14.00;1.00;;;;;;4860393;29;20264;-91
2021/10/26 10:29:59;;;;;;;6.97;6.57;;;13.90;1.00;;;;;;4857935;29;20181;-91
2021/10/26 10:32:29;;;;;;;9.03;8.50;;;13.90;1.00;;;;;;4847684;29;20203;-91
2021/10/26 10:34:56;;;;;;;7.30;6.90;;;13.90;1.00;;;;;;4856146;29;20239;-92
2021/10/26 10:37:34;;;;;;;6.47;6.03;;;14.20;1.00;;;;;;4857307;29;20818;-92
2021/10/26 10:40:04;;;;;;;4.00;3.70;;;14.20;1.00;;;;;;4857120;29;20201;-91
2021/10/26 10:42:31;;;;;;;3.90;3.60;;;14.20;1.00;;;;;;4866321;29;20234;-91
2021/10/26 10:44:59;;;;;;;6.50;6.00;;;14.20;1.00;;;;;;4847951;29;20609;-91
2021/10/26 10:47:33;;;;;;;4.83;4.57;;;14.20;1.00;;;;;;4852340;29;20196;-91
2021/10/26 10:49:59;;;;;;;3.47;3.13;;;;;;;;;;4856572;29;20202;-92
2021/10/26 10:52:31;;;;;;;4.17;3.87;;;14.40;1.00;;;;;;4845601;29;20211;-91
2021/10/26 10:54:58;;;;;;;3.57;3.37;;;;;;;;;;4867027;29;20184;-92
2021/10/26 10:57:35;;;;;;;2.60;2.40;;;14.50;1.00;;;;;;4857885;29;20219;-91
2021/10/26 11:00:34;;;;;;;2.80;2.60;;;14.90;1.00;;;;;;4861256;29;20197;-91
2021/10/26 11:03:00;;;;;;;5.03;2.63;;;;;;;;;;4827372;29;20211;-91
2021/10/26 11:06:05;;;;;;;2.43;2.23;;;15.30;1.00;;;;;;4856117;29;20202;-91
2021/10/26 11:08:47;;;;;;;2.17;2.07;;;15.40;1.00;;;;;;4845774;29;20578;-91
2021/10/26 11:11:16;;;;;;;3.13;2.93;;;15.30;1.00;;;;;;4840582;29;20204;-91
2021/10/26 11:13:42;;;;;;;3.77;2.17;;;15.20;1.00;;;;;;4861351;29;20198;-92
2021/10/26 11:16:10;;;;;;;3.53;2.23;;;15.40;1.00;;;;;;4863246;29;20590;-92
2021/10/26 11:18:36;;;;;;;1.80;1.70;;;15.50;1.00;;;;;;4848066;29;20225;-91
2021/10/26 11:21:07;;;;;;;6.23;4.83;;;15.20;1.00;;;;;;4863782;29;20212;-91
2021/10/26 11:23:47;;;;;;;1.70;1.60;;;15.30;1.00;;;;;;4846495;29;20198;-91
2021/10/26 11:26:32;;;;;;;2.00;1.90;;;15.30;1.00;;;;;;4849014;29;20194;-91
2021/10/26 11:29:03;;;;;;;2.47;2.00;;;15.50;1.00;;;;;;4852733;29;20197;-91
2021/10/26 11:31:40;;;;;;;3.17;2.97;;;15.50;1.00;;;;;;4864303;29;20615;-91
2021/10/26 11:34:14;;;;;;;3.17;2.97;;;15.90;1.00;;;;;;4853858;29;20285;-91
2021/10/26 11:36:40;;;;;;;2.43;2.23;;;16.90;1.00;;;;;;4862220;29;20202;-92
2021/10/26 11:39:16;;;;;;;2.77;2.53;;;16.60;1.00;;;;;;4850594;29;20585;-92
2021/10/26 11:41:43;;;;;;;3.83;2.80;;;16.60;1.00;;;;;;4851450;29;20201;-91
2021/10/26 11:44:14;;;;;;;2.90;2.60;;;18.20;1.00;;;;;;4858827;29;20205;-91
2021/10/26 11:46:43;;;;;;;1.93;1.83;;;19.60;1.00;;;;;;4859374;29;20204;-92
2021/10/26 11:49:21;;;;;;;2.70;2.50;;;19.50;1.00;;;;;;4842552;29;20213;-91
2021/10/26 11:51:58;;;;;;;2.30;2.10;;;20.40;1.00;;;;;;4865576;29;20196;-91
2021/10/26 11:54:29;;;;;;;2.27;2.07;;;20.20;1.00;;;;;;4851944;29;20224;-92
2021/10/26 11:56:56;;;;;;;1.63;1.53;;;20.80;1.00;;;;;;4867815;29;20210;-92
2021/10/26 11:59:22;;;;;;;1.63;1.53;;;20.70;1.00;;;;;;4853685;29;20236;-92
2021/10/26 12:01:50;;;;;;;1.83;1.73;;;20.90;1.00;;;;;;4866692;29;20203;-91
2021/10/26 12:04:49;;;;;;;1.67;1.37;;;21.80;1.00;;;;;;4866714;29;20719;-91
2021/10/26 12:07:17;;;;;;;1.03;1.00;;;21.70;1.00;;;;;;4793505;29;20213;-92
2021/10/26 12:09:53;;;;;;;1.80;1.67;;;21.00;1.00;;;;;;4785454;30;20224;-92
2021/10/26 12:12:32;;;;;;;2.17;1.60;;;21.20;1.00;;;;;;4761932;30;20265;-92
2021/10/26 12:15:01;;;;;;;1.60;1.47;;;21.00;1.00;;;;;;4775125;30;20197;-92
2021/10/26 12:17:36;;;;;;;1.40;1.30;;;21.10;1.00;;;;;;4792544;29;20186;-91
2021/10/26 12:20:23;;;;;;;1.30;1.20;;;20.40;1.00;;;;;;4779199;29;20222;-92
2021/10/26 12:22:53;;;;;;;1.27;1.17;;;20.30;1.00;;;;;;4778297;30;20186;-91
2021/10/26 12:25:25;;;;;;;1.40;1.30;;;20.80;1.00;;;;;;4797618;29;20209;-92
2021/10/26 12:27:58;;;;;;;1.13;0.97;;;21.10;1.00;;;;;;4784622;30;20212;-92
2021/10/26 12:30:31;;;;;;;0.90;0.90;;;20.40;1.00;;;;;;4789012;30;20197;-92
2021/10/26 12:33:19;;;;;;;1.37;1.10;;;20.90;1.00;;;;;;4794726;30;20196;-91
2021/10/26 12:36:08;;;;;;;1.13;0.90;;;21.00;1.00;;;;;;4743322;30;20220;-92
2021/10/26 12:38:38;;;;;;;1.87;1.77;;;21.90;1.00;;;;;;4691400;30;20321;-92
2021/10/26 12:41:16;;;;;;;1.53;1.10;;;22.10;1.00;;;;;;4689197;30;20719;-92
2021/10/26 12:43:45;;;;;;;0.77;0.77;;;22.40;1.00;;;;;;4717229;30;20191;-92
2021/10/26 12:46:24;;;;;;;0.97;0.97;;;22.20;1.00;;;;;;4758387;30;20213;-92
2021/10/26 12:48:53;;;;;;;1.57;1.10;;;22.10;1.00;;;;;;4753207;30;20199;-92
2021/10/26 12:51:25;;;;;;;1.20;1.10;;;22.20;1.00;;;;;;4758648;30;20760;-92
2021/10/26 12:54:03;;;;;;;1.20;0.93;;;23.10;1.00;;;;;;4758622;30;20216;-92
2021/10/26 12:56:32;;;;;;;0.77;0.77;;;22.90;1.00;;;;;;4754606;30;20205;-92
2021/10/26 12:59:28;;;;;;;0.87;0.87;;;21.70;1.00;;;;;;4759461;30;20653;-91
2021/10/26 13:02:04;;;;;;;0.63;0.63;;;20.30;1.00;;;;;;4708921;30;20297;-92
2021/10/26 13:04:30;;;;;;;0.60;0.60;;;18.90;1.00;;;;;;4695649;30;20227;-92
2021/10/26 13:07:00;;;;;;;1.37;1.00;;;18.50;1.00;;;;;;4688300;30;20239;-92
2021/10/26 13:09:37;;;;;;;0.70;0.70;;;18.10;1.00;;;;;;4681824;30;20212;-92
2021/10/26 13:12:26;;;;;;;0.70;0.70;;;17.50;1.00;;;;;;4687718;30;20246;-92
2021/10/26 13:14:56;;;;;;;0.67;0.67;;;17.30;1.00;;;;;;4693650;30;20217;-91
2021/10/26 13:17:43;;;;;;;1.00;1.00;;;16.60;1.00;;;;;;4722908;30;20208;-93
2021/10/26 13:20:32;;;;;;;0.80;0.80;;;16.60;1.00;;;;;;4722395;30;20207;-92